This is the latest recevied weather packets stored in our database for station/object F5SZR-10. If no packets are shown the sender has not sent any weather packets the latest 10 day(s).
| Time | Temp. | Humidity | Pressure | Rain* | Wind** | Luminosity | Snow |
|---|---|---|---|---|---|---|---|
| 1788162958 | 30° C | 48% | 1035.5 hPa | - | - | - | - |
| 1788162058 | 30° C | 50% | 1035.3 hPa | - | - | - | - |
| 1788161158 | 29.44° C | 51% | 1035.3 hPa | - | - | - | - |
| 1788160258 | 28.33° C | 54% | 1035.1 hPa | - | - | - | - |
| 1788159357 | 23.89° C | 63% | 1035.1 hPa | - | - | - | - |
| 1788093469 | 31.67° C | 45% | 1028.9 hPa | - | - | - | - |
| 1788092569 | 31.67° C | 45% | 1028.9 hPa | - | - | - | - |
| 1788091669 | 31.67° C | 45% | 1029 hPa | - | - | - | - |
| 1788090769 | 31.11° C | 45% | 1029.1 hPa | - | - | - | - |
| 1788089869 | 31.11° C | 45% | 1029 hPa | - | - | - | - |
| 1788088968 | 31.11° C | 45% | 1029.1 hPa | - | - | - | - |
| 1788088068 | 31.11° C | 45% | 1029.2 hPa | - | - | - | - |
| 1788087168 | 30.56° C | 46% | 1029.4 hPa | - | - | - | - |
| 1788086268 | 30.56° C | 47% | 1029.5 hPa | - | - | - | - |
| 1788085368 | 30.56° C | 46% | 1029.8 hPa | - | - | - | - |
| 1788084468 | 30.56° C | 46% | 1029.7 hPa | - | - | - | - |
| 1788083568 | 30.56° C | 47% | 1030.1 hPa | - | - | - | - |
| 1788082668 | 30.56° C | 46% | 1030.2 hPa | - | - | - | - |
| 1788081768 | 30.56° C | 46% | 1030.2 hPa | - | - | - | - |
| 1788080867 | 30.56° C | 46% | 1030.4 hPa | - | - | - | - |
| 1788079968 | 30° C | 46% | 1030.5 hPa | - | - | - | - |
| 1788079067 | 30° C | 47% | 1030.5 hPa | - | - | - | - |
| 1788078177 | 30° C | 47% | 1030.5 hPa | - | - | - | - |
| 1788077277 | 30° C | 46% | 1030.6 hPa | - | - | - | - |
| 1788076377 | 30° C | 47% | 1030.7 hPa | - | - | - | - |
* Rain since midnight (hover to see other rain measurements)
** Current wind speed in m/s (hover to see current wind gust speed)